Startpagina
METAR-TAF:

METAR-TAF

Vliegvelden :

Internationale luchthaven Nanjing Lukou

Nanking, China

breedte: 32-00N, lengte: 118-48E, hoogte: 12 m

Actueel weer

Dit bericht is 56 minuten geleden gemaakt, om 06:00 UTC
Wind 8 kt uit het zuiden, variërend tussen het oostzuidoosten en het zuidzuidwesten
Temperatuur 29°C
Vochtigheid 70%
Druk 1007 hPa
Zicht 10 km of meer
Verspreide wolken op 2600 ft

METAR: ZSNJ 240600Z 18004MPS 120V200 9999 SCT026 29/23 Q1007 NOSIG

Tijdstip: 14:56 (06:56 UTC)

Verwachting

Dit bericht is 3 uur en het 53 minuten geleden gemaakt, om 03:03 UTC
Verwachting geldig van 24 om 06 UTC tot 25 om 06 UTC
Wind 8 kt uit het zuidoosten
Zicht: 3000 m
nevel

TAF: ZSNJ 240303Z 2406/2506 14004MPS 3000 BR NSC TX31/2407Z TN24/2422Z

Waarnemingen en weersverwachtingen van meer dan 4000 vliegvelden (METAR en TAF).

De beschikbare stations zijn de gele en rode punten op de kaart.

Ga met uw muis naar het station om de naam te zien.

Klik dan om waarnemingen en weersverwachtingen te zien.

kaart wijzigen: klik op de groene knoppen met een zwart kruis om in te zoomen, op de groene knop met een streepje om uit te zoomen of op de groene pijlen voor aangrenzende kaarten.


METAR-TAF: